sensor_id;sensor_type;location;lat;lon;timestamp;P1;durP1;ratioP1;P2;durP2;ratioP2
34242;SDS011;20504;43.214;27.920;2022-11-23T00:01:31;17.58;;;6.28;;
34242;SDS011;20504;43.214;27.920;2022-11-23T00:04:06;12.00;;;5.35;;
34242;SDS011;20504;43.214;27.920;2022-11-23T00:06:51;27.77;;;5.70;;
34242;SDS011;20504;43.214;27.920;2022-11-23T00:09:43;20.35;;;5.72;;
34242;SDS011;20504;43.214;27.920;2022-11-23T00:12:15;22.98;;;6.65;;
34242;SDS011;20504;43.214;27.920;2022-11-23T00:14:46;13.20;;;5.97;;
34242;SDS011;20504;43.214;27.920;2022-11-23T00:17:15;13.52;;;5.10;;
34242;SDS011;20504;43.214;27.920;2022-11-23T00:19:41;18.65;;;5.00;;
34242;SDS011;20504;43.214;27.920;2022-11-23T00:22:12;14.70;;;6.40;;
34242;SDS011;20504;43.214;27.920;2022-11-23T00:24:44;17.13;;;5.40;;
34242;SDS011;20504;43.214;27.920;2022-11-23T00:27:14;17.33;;;5.80;;
34242;SDS011;20504;43.214;27.920;2022-11-23T00:29:43;17.42;;;5.57;;
34242;SDS011;20504;43.214;27.920;2022-11-23T00:32:13;15.13;;;5.07;;
34242;SDS011;20504;43.214;27.920;2022-11-23T00:34:50;14.90;;;5.65;;
34242;SDS011;20504;43.214;27.920;2022-11-23T00:37:22;16.60;;;5.60;;
34242;SDS011;20504;43.214;27.920;2022-11-23T00:39:51;22.15;;;5.60;;
34242;SDS011;20504;43.214;27.920;2022-11-23T00:42:37;18.05;;;5.07;;
34242;SDS011;20504;43.214;27.920;2022-11-23T00:45:13;17.58;;;5.32;;
34242;SDS011;20504;43.214;27.920;2022-11-23T00:47:42;18.40;;;5.68;;
34242;SDS011;20504;43.214;27.920;2022-11-23T00:50:44;20.85;;;6.30;;
34242;SDS011;20504;43.214;27.920;2022-11-23T00:53:13;19.77;;;6.00;;
34242;SDS011;20504;43.214;27.920;2022-11-23T00:56:14;16.08;;;6.13;;
34242;SDS011;20504;43.214;27.920;2022-11-23T00:58:53;18.02;;;5.70;;
34242;SDS011;20504;43.214;27.920;2022-11-23T01:01:33;16.40;;;5.93;;
34242;SDS011;20504;43.214;27.920;2022-11-23T01:04:03;14.68;;;5.50;;
34242;SDS011;20504;43.214;27.920;2022-11-23T01:06:32;21.73;;;5.45;;
34242;SDS011;20504;43.214;27.920;2022-11-23T01:09:03;17.98;;;5.10;;
34242;SDS011;20504;43.214;27.920;2022-11-23T01:11:42;25.40;;;6.05;;
34242;SDS011;20504;43.214;27.920;2022-11-23T01:14:11;19.20;;;6.93;;
34242;SDS011;20504;43.214;27.920;2022-11-23T01:16:38;17.73;;;6.17;;
34242;SDS011;20504;43.214;27.920;2022-11-23T01:19:11;17.45;;;5.80;;
34242;SDS011;20504;43.214;27.920;2022-11-23T01:21:44;27.23;;;7.00;;
34242;SDS011;20504;43.214;27.920;2022-11-23T01:24:16;22.02;;;6.47;;
34242;SDS011;20504;43.214;27.920;2022-11-23T01:26:59;23.88;;;6.88;;
34242;SDS011;20504;43.214;27.920;2022-11-23T01:29:24;19.43;;;6.97;;
34242;SDS011;20504;43.214;27.920;2022-11-23T01:31:50;22.73;;;7.27;;
34242;SDS011;20504;43.214;27.920;2022-11-23T01:34:17;26.40;;;8.80;;
34242;SDS011;20504;43.214;27.920;2022-11-23T01:36:43;24.57;;;7.47;;
34242;SDS011;20504;43.214;27.920;2022-11-23T01:39:09;23.83;;;8.50;;
34242;SDS011;20504;43.214;27.920;2022-11-23T01:41:48;25.17;;;9.40;;
34242;SDS011;20504;43.214;27.920;2022-11-23T01:44:22;24.35;;;8.77;;
34242;SDS011;20504;43.214;27.920;2022-11-23T01:46:53;22.38;;;8.50;;
34242;SDS011;20504;43.214;27.920;2022-11-23T01:51:47;24.65;;;8.60;;
34242;SDS011;20504;43.214;27.920;2022-11-23T01:54:33;24.50;;;10.27;;
34242;SDS011;20504;43.214;27.920;2022-11-23T01:57:05;23.17;;;8.82;;
34242;SDS011;20504;43.214;27.920;2022-11-23T01:59:35;24.42;;;7.82;;
34242;SDS011;20504;43.214;27.920;2022-11-23T02:02:04;22.48;;;8.43;;
34242;SDS011;20504;43.214;27.920;2022-11-23T02:04:34;23.00;;;7.63;;
34242;SDS011;20504;43.214;27.920;2022-11-23T02:07:05;26.33;;;8.38;;
34242;SDS011;20504;43.214;27.920;2022-11-23T02:09:36;29.30;;;8.55;;
34242;SDS011;20504;43.214;27.920;2022-11-23T02:12:02;26.20;;;9.10;;
34242;SDS011;20504;43.214;27.920;2022-11-23T02:14:31;25.23;;;8.23;;
34242;SDS011;20504;43.214;27.920;2022-11-23T02:16:57;33.63;;;8.60;;
34242;SDS011;20504;43.214;27.920;2022-11-23T02:19:29;25.13;;;7.05;;
34242;SDS011;20504;43.214;27.920;2022-11-23T02:22:19;24.33;;;7.53;;
34242;SDS011;20504;43.214;27.920;2022-11-23T02:24:52;21.48;;;8.30;;
34242;SDS011;20504;43.214;27.920;2022-11-23T02:27:19;27.15;;;8.65;;
34242;SDS011;20504;43.214;27.920;2022-11-23T02:29:47;19.75;;;7.78;;
34242;SDS011;20504;43.214;27.920;2022-11-23T02:32:18;26.88;;;7.80;;
34242;SDS011;20504;43.214;27.920;2022-11-23T02:34:48;29.08;;;8.18;;
34242;SDS011;20504;43.214;27.920;2022-11-23T02:37:14;23.52;;;7.25;;
34242;SDS011;20504;43.214;27.920;2022-11-23T02:39:41;24.60;;;7.22;;
34242;SDS011;20504;43.214;27.920;2022-11-23T02:42:10;27.42;;;7.75;;
34242;SDS011;20504;43.214;27.920;2022-11-23T02:44:38;31.67;;;7.97;;
34242;SDS011;20504;43.214;27.920;2022-11-23T02:47:12;16.52;;;6.75;;
34242;SDS011;20504;43.214;27.920;2022-11-23T02:49:38;14.82;;;6.25;;
34242;SDS011;20504;43.214;27.920;2022-11-23T02:52:05;22.38;;;6.97;;
34242;SDS011;20504;43.214;27.920;2022-11-23T02:54:31;19.48;;;6.30;;
34242;SDS011;20504;43.214;27.920;2022-11-23T02:59:42;19.80;;;7.32;;
34242;SDS011;20504;43.214;27.920;2022-11-23T03:02:12;25.00;;;7.10;;
34242;SDS011;20504;43.214;27.920;2022-11-23T03:04:38;22.58;;;6.88;;
34242;SDS011;20504;43.214;27.920;2022-11-23T03:07:03;23.53;;;7.73;;
34242;SDS011;20504;43.214;27.920;2022-11-23T03:09:29;29.03;;;7.87;;
34242;SDS011;20504;43.214;27.920;2022-11-23T03:11:56;18.10;;;6.75;;
34242;SDS011;20504;43.214;27.920;2022-11-23T03:14:22;17.73;;;7.53;;
34242;SDS011;20504;43.214;27.920;2022-11-23T03:16:47;15.23;;;6.73;;
34242;SDS011;20504;43.214;27.920;2022-11-23T03:21:39;18.20;;;6.65;;
34242;SDS011;20504;43.214;27.920;2022-11-23T03:24:05;18.43;;;6.77;;
34242;SDS011;20504;43.214;27.920;2022-11-23T03:26:32;17.23;;;6.60;;
34242;SDS011;20504;43.214;27.920;2022-11-23T03:28:57;21.33;;;7.93;;
34242;SDS011;20504;43.214;27.920;2022-11-23T03:31:26;28.75;;;7.82;;
34242;SDS011;20504;43.214;27.920;2022-11-23T03:33:54;25.50;;;7.53;;
34242;SDS011;20504;43.214;27.920;2022-11-23T03:36:20;17.45;;;7.65;;
34242;SDS011;20504;43.214;27.920;2022-11-23T03:38:47;21.98;;;7.82;;
34242;SDS011;20504;43.214;27.920;2022-11-23T03:41:15;24.77;;;7.70;;
34242;SDS011;20504;43.214;27.920;2022-11-23T03:43:41;23.33;;;7.20;;
34242;SDS011;20504;43.214;27.920;2022-11-23T03:46:08;20.45;;;7.60;;
34242;SDS011;20504;43.214;27.920;2022-11-23T03:48:33;24.00;;;7.23;;
34242;SDS011;20504;43.214;27.920;2022-11-23T03:51:02;19.67;;;6.88;;
34242;SDS011;20504;43.214;27.920;2022-11-23T03:53:29;20.17;;;6.93;;
34242;SDS011;20504;43.214;27.920;2022-11-23T03:55:55;22.15;;;6.35;;
34242;SDS011;20504;43.214;27.920;2022-11-23T03:58:23;21.80;;;6.32;;
34242;SDS011;20504;43.214;27.920;2022-11-23T04:03:15;18.90;;;6.28;;
34242;SDS011;20504;43.214;27.920;2022-11-23T04:05:42;18.05;;;6.45;;
34242;SDS011;20504;43.214;27.920;2022-11-23T04:08:08;18.73;;;6.93;;
34242;SDS011;20504;43.214;27.920;2022-11-23T04:10:34;24.60;;;6.57;;
34242;SDS011;20504;43.214;27.920;2022-11-23T04:12:59;25.37;;;6.53;;
34242;SDS011;20504;43.214;27.920;2022-11-23T04:15:26;21.40;;;7.43;;
34242;SDS011;20504;43.214;27.920;2022-11-23T04:17:53;26.30;;;7.82;;
34242;SDS011;20504;43.214;27.920;2022-11-23T04:20:19;23.27;;;6.80;;
34242;SDS011;20504;43.214;27.920;2022-11-23T04:22:45;24.30;;;6.60;;
34242;SDS011;20504;43.214;27.920;2022-11-23T04:25:12;17.75;;;7.35;;
34242;SDS011;20504;43.214;27.920;2022-11-23T04:27:39;18.80;;;6.60;;
34242;SDS011;20504;43.214;27.920;2022-11-23T04:30:06;24.08;;;6.45;;
34242;SDS011;20504;43.214;27.920;2022-11-23T04:32:34;22.23;;;7.38;;
34242;SDS011;20504;43.214;27.920;2022-11-23T04:35:03;23.08;;;6.53;;
34242;SDS011;20504;43.214;27.920;2022-11-23T04:37:51;32.08;;;7.55;;
34242;SDS011;20504;43.214;27.920;2022-11-23T04:40:16;22.23;;;7.27;;
34242;SDS011;20504;43.214;27.920;2022-11-23T04:42:43;27.43;;;8.27;;
34242;SDS011;20504;43.214;27.920;2022-11-23T04:45:11;25.45;;;6.82;;
34242;SDS011;20504;43.214;27.920;2022-11-23T04:47:37;24.23;;;7.97;;
34242;SDS011;20504;43.214;27.920;2022-11-23T04:50:03;32.83;;;8.00;;
34242;SDS011;20504;43.214;27.920;2022-11-23T04:52:29;24.67;;;7.73;;
34242;SDS011;20504;43.214;27.920;2022-11-23T04:54:54;24.90;;;7.53;;
34242;SDS011;20504;43.214;27.920;2022-11-23T05:00:16;27.00;;;7.32;;
34242;SDS011;20504;43.214;27.920;2022-11-23T05:02:43;27.52;;;7.20;;
34242;SDS011;20504;43.214;27.920;2022-11-23T05:05:09;32.27;;;8.07;;
34242;SDS011;20504;43.214;27.920;2022-11-23T05:07:38;24.73;;;7.07;;
34242;SDS011;20504;43.214;27.920;2022-11-23T05:10:13;28.60;;;7.95;;
34242;SDS011;20504;43.214;27.920;2022-11-23T05:12:41;28.30;;;8.25;;
34242;SDS011;20504;43.214;27.920;2022-11-23T05:15:27;22.85;;;8.02;;
34242;SDS011;20504;43.214;27.920;2022-11-23T05:18:01;29.73;;;8.75;;
34242;SDS011;20504;43.214;27.920;2022-11-23T05:20:34;27.13;;;7.43;;
34242;SDS011;20504;43.214;27.920;2022-11-23T05:23:01;34.05;;;9.05;;
34242;SDS011;20504;43.214;27.920;2022-11-23T05:25:34;25.25;;;7.93;;
34242;SDS011;20504;43.214;27.920;2022-11-23T05:27:59;28.70;;;7.40;;
34242;SDS011;20504;43.214;27.920;2022-11-23T05:30:29;21.88;;;6.85;;
34242;SDS011;20504;43.214;27.920;2022-11-23T05:33:00;22.85;;;6.20;;
34242;SDS011;20504;43.214;27.920;2022-11-23T05:35:26;23.52;;;6.50;;
34242;SDS011;20504;43.214;27.920;2022-11-23T05:37:53;19.40;;;5.80;;
34242;SDS011;20504;43.214;27.920;2022-11-23T05:42:46;17.25;;;5.50;;
34242;SDS011;20504;43.214;27.920;2022-11-23T05:47:48;26.23;;;6.32;;
34242;SDS011;20504;43.214;27.920;2022-11-23T05:50:49;21.88;;;5.65;;
34242;SDS011;20504;43.214;27.920;2022-11-23T05:53:15;17.17;;;6.20;;
34242;SDS011;20504;43.214;27.920;2022-11-23T05:55:41;26.50;;;5.83;;
34242;SDS011;20504;43.214;27.920;2022-11-23T05:58:06;21.93;;;6.30;;
34242;SDS011;20504;43.214;27.920;2022-11-23T06:00:36;24.45;;;5.93;;
34242;SDS011;20504;43.214;27.920;2022-11-23T06:03:03;24.73;;;6.88;;
34242;SDS011;20504;43.214;27.920;2022-11-23T06:05:45;28.05;;;7.40;;
34242;SDS011;20504;43.214;27.920;2022-11-23T06:08:11;22.90;;;5.47;;
34242;SDS011;20504;43.214;27.920;2022-11-23T06:10:37;20.17;;;5.00;;
34242;SDS011;20504;43.214;27.920;2022-11-23T06:13:04;25.70;;;5.17;;
34242;SDS011;20504;43.214;27.920;2022-11-23T06:15:32;24.95;;;6.18;;
34242;SDS011;20504;43.214;27.920;2022-11-23T06:18:03;20.05;;;5.65;;
34242;SDS011;20504;43.214;27.920;2022-11-23T06:20:29;26.80;;;5.88;;
34242;SDS011;20504;43.214;27.920;2022-11-23T06:23:01;26.67;;;5.72;;
34242;SDS011;20504;43.214;27.920;2022-11-23T06:25:26;24.73;;;6.63;;
34242;SDS011;20504;43.214;27.920;2022-11-23T06:27:55;19.33;;;5.72;;
34242;SDS011;20504;43.214;27.920;2022-11-23T06:30:22;27.80;;;6.32;;
34242;SDS011;20504;43.214;27.920;2022-11-23T06:32:49;18.88;;;6.78;;
34242;SDS011;20504;43.214;27.920;2022-11-23T06:35:14;31.63;;;6.97;;
34242;SDS011;20504;43.214;27.920;2022-11-23T06:40:09;22.15;;;6.15;;
34242;SDS011;20504;43.214;27.920;2022-11-23T06:42:35;24.83;;;6.68;;
34242;SDS011;20504;43.214;27.920;2022-11-23T06:45:02;36.40;;;7.07;;
34242;SDS011;20504;43.214;27.920;2022-11-23T06:47:29;23.35;;;7.10;;
34242;SDS011;20504;43.214;27.920;2022-11-23T06:49:56;33.70;;;8.00;;
34242;SDS011;20504;43.214;27.920;2022-11-23T06:55:02;27.98;;;7.20;;
34242;SDS011;20504;43.214;27.920;2022-11-23T06:57:50;25.92;;;6.05;;
34242;SDS011;20504;43.214;27.920;2022-11-23T07:00:16;16.42;;;5.32;;
34242;SDS011;20504;43.214;27.920;2022-11-23T07:02:51;22.63;;;4.85;;
34242;SDS011;20504;43.214;27.920;2022-11-23T07:05:19;15.88;;;5.05;;
34242;SDS011;20504;43.214;27.920;2022-11-23T07:07:46;21.58;;;5.18;;
34242;SDS011;20504;43.214;27.920;2022-11-23T07:10:12;23.77;;;6.18;;
34242;SDS011;20504;43.214;27.920;2022-11-23T07:12:38;19.70;;;4.95;;
34242;SDS011;20504;43.214;27.920;2022-11-23T07:15:06;17.35;;;6.18;;
34242;SDS011;20504;43.214;27.920;2022-11-23T07:17:55;20.88;;;5.18;;
34242;SDS011;20504;43.214;27.920;2022-11-23T07:20:21;15.93;;;4.80;;
34242;SDS011;20504;43.214;27.920;2022-11-23T07:25:25;14.68;;;4.13;;
34242;SDS011;20504;43.214;27.920;2022-11-23T07:27:54;18.25;;;4.88;;
34242;SDS011;20504;43.214;27.920;2022-11-23T07:30:35;25.25;;;5.07;;
34242;SDS011;20504;43.214;27.920;2022-11-23T07:33:04;12.88;;;4.70;;
34242;SDS011;20504;43.214;27.920;2022-11-23T07:35:32;15.90;;;4.70;;
34242;SDS011;20504;43.214;27.920;2022-11-23T07:38:01;22.23;;;5.88;;
34242;SDS011;20504;43.214;27.920;2022-11-23T07:40:27;19.92;;;4.13;;
34242;SDS011;20504;43.214;27.920;2022-11-23T07:43:00;19.10;;;5.15;;
34242;SDS011;20504;43.214;27.920;2022-11-23T07:45:32;19.83;;;5.13;;
34242;SDS011;20504;43.214;27.920;2022-11-23T07:48:03;15.75;;;5.53;;
34242;SDS011;20504;43.214;27.920;2022-11-23T07:50:37;20.17;;;6.38;;
34242;SDS011;20504;43.214;27.920;2022-11-23T07:53:11;19.33;;;5.22;;
34242;SDS011;20504;43.214;27.920;2022-11-23T07:55:42;20.63;;;5.22;;
34242;SDS011;20504;43.214;27.920;2022-11-23T07:58:32;21.67;;;5.18;;
34242;SDS011;20504;43.214;27.920;2022-11-23T08:01:24;21.35;;;5.82;;
34242;SDS011;20504;43.214;27.920;2022-11-23T08:04:17;27.23;;;6.18;;
34242;SDS011;20504;43.214;27.920;2022-11-23T08:07:08;22.40;;;6.65;;
34242;SDS011;20504;43.214;27.920;2022-11-23T08:09:34;26.13;;;5.90;;
34242;SDS011;20504;43.214;27.920;2022-11-23T08:12:27;24.23;;;5.22;;
34242;SDS011;20504;43.214;27.920;2022-11-23T08:15:24;22.70;;;6.07;;
34242;SDS011;20504;43.214;27.920;2022-11-23T08:18:26;25.13;;;6.22;;
34242;SDS011;20504;43.214;27.920;2022-11-23T08:21:32;28.40;;;7.20;;
34242;SDS011;20504;43.214;27.920;2022-11-23T08:24:27;20.75;;;5.32;;
34242;SDS011;20504;43.214;27.920;2022-11-23T08:27:15;20.55;;;5.75;;
34242;SDS011;20504;43.214;27.920;2022-11-23T08:29:47;20.83;;;5.72;;
34242;SDS011;20504;43.214;27.920;2022-11-23T08:32:20;21.92;;;5.60;;
34242;SDS011;20504;43.214;27.920;2022-11-23T08:34:53;21.83;;;5.53;;
34242;SDS011;20504;43.214;27.920;2022-11-23T08:37:25;19.83;;;4.85;;
34242;SDS011;20504;43.214;27.920;2022-11-23T08:40:08;19.23;;;5.90;;
34242;SDS011;20504;43.214;27.920;2022-11-23T08:42:51;20.85;;;6.05;;
34242;SDS011;20504;43.214;27.920;2022-11-23T08:45:20;17.92;;;5.55;;
34242;SDS011;20504;43.214;27.920;2022-11-23T08:47:51;14.95;;;4.30;;
34242;SDS011;20504;43.214;27.920;2022-11-23T08:50:30;21.33;;;5.22;;
34242;SDS011;20504;43.214;27.920;2022-11-23T08:52:59;22.17;;;6.00;;
34242;SDS011;20504;43.214;27.920;2022-11-23T08:58:05;15.32;;;5.90;;
34242;SDS011;20504;43.214;27.920;2022-11-23T09:00:37;17.25;;;5.20;;
34242;SDS011;20504;43.214;27.920;2022-11-23T09:03:19;18.17;;;5.40;;
34242;SDS011;20504;43.214;27.920;2022-11-23T09:06:12;15.82;;;5.75;;
34242;SDS011;20504;43.214;27.920;2022-11-23T09:08:57;27.10;;;6.28;;
34242;SDS011;20504;43.214;27.920;2022-11-23T09:11:41;21.23;;;5.40;;
34242;SDS011;20504;43.214;27.920;2022-11-23T09:14:09;22.90;;;6.30;;
34242;SDS011;20504;43.214;27.920;2022-11-23T09:16:37;26.30;;;6.50;;
34242;SDS011;20504;43.214;27.920;2022-11-23T09:19:04;25.90;;;5.68;;
34242;SDS011;20504;43.214;27.920;2022-11-23T09:21:41;21.80;;;5.85;;
34242;SDS011;20504;43.214;27.920;2022-11-23T09:24:10;17.73;;;5.10;;
34242;SDS011;20504;43.214;27.920;2022-11-23T09:26:40;21.48;;;6.40;;
34242;SDS011;20504;43.214;27.920;2022-11-23T09:29:10;22.27;;;5.95;;
34242;SDS011;20504;43.214;27.920;2022-11-23T09:31:57;24.38;;;6.80;;
34242;SDS011;20504;43.214;27.920;2022-11-23T09:34:41;18.85;;;6.10;;
34242;SDS011;20504;43.214;27.920;2022-11-23T09:37:11;22.60;;;6.68;;
34242;SDS011;20504;43.214;27.920;2022-11-23T09:39:39;23.48;;;5.90;;
34242;SDS011;20504;43.214;27.920;2022-11-23T09:50:46;32.13;;;7.25;;
34242;SDS011;20504;43.214;27.920;2022-11-23T09:53:23;25.63;;;7.15;;
34242;SDS011;20504;43.214;27.920;2022-11-23T09:55:54;30.30;;;7.75;;
34242;SDS011;20504;43.214;27.920;2022-11-23T09:58:22;33.42;;;7.18;;
34242;SDS011;20504;43.214;27.920;2022-11-23T10:01:03;24.45;;;6.43;;
34242;SDS011;20504;43.214;27.920;2022-11-23T10:03:33;22.83;;;6.85;;
34242;SDS011;20504;43.214;27.920;2022-11-23T10:14:13;37.80;;;9.60;;
34242;SDS011;20504;43.214;27.920;2022-11-23T10:22:08;22.52;;;7.03;;
34242;SDS011;20504;43.214;27.920;2022-11-23T10:24:44;25.08;;;7.32;;
34242;SDS011;20504;43.214;27.920;2022-11-23T10:27:20;25.58;;;6.82;;
34242;SDS011;20504;43.214;27.920;2022-11-23T10:29:48;26.52;;;8.48;;
34242;SDS011;20504;43.214;27.920;2022-11-23T10:37:41;34.05;;;11.88;;
34242;SDS011;20504;43.214;27.920;2022-11-23T10:40:16;26.90;;;9.13;;
34242;SDS011;20504;43.214;27.920;2022-11-23T10:42:51;23.75;;;8.77;;
34242;SDS011;20504;43.214;27.920;2022-11-23T10:45:24;26.35;;;9.00;;
34242;SDS011;20504;43.214;27.920;2022-11-23T10:47:52;32.80;;;11.65;;
34242;SDS011;20504;43.214;27.920;2022-11-23T10:50:31;27.35;;;10.65;;
34242;SDS011;20504;43.214;27.920;2022-11-23T10:55:30;27.70;;;10.57;;
34242;SDS011;20504;43.214;27.920;2022-11-23T11:01:14;29.27;;;9.77;;
34242;SDS011;20504;43.214;27.920;2022-11-23T11:03:41;24.80;;;8.23;;
34242;SDS011;20504;43.214;27.920;2022-11-23T11:06:08;26.03;;;9.87;;
34242;SDS011;20504;43.214;27.920;2022-11-23T11:08:36;29.38;;;10.23;;
34242;SDS011;20504;43.214;27.920;2022-11-23T11:11:23;33.55;;;11.82;;
34242;SDS011;20504;43.214;27.920;2022-11-23T11:16:50;28.27;;;10.23;;
34242;SDS011;20504;43.214;27.920;2022-11-23T11:22:00;32.13;;;12.70;;
34242;SDS011;20504;43.214;27.920;2022-11-23T11:27:02;27.17;;;12.02;;
34242;SDS011;20504;43.214;27.920;2022-11-23T11:32:48;29.63;;;11.98;;
34242;SDS011;20504;43.214;27.920;2022-11-23T11:35:28;39.47;;;12.55;;
34242;SDS011;20504;43.214;27.920;2022-11-23T11:40:49;31.27;;;11.80;;
34242;SDS011;20504;43.214;27.920;2022-11-23T11:46:15;24.85;;;9.75;;
34242;SDS011;20504;43.214;27.920;2022-11-23T11:48:45;23.10;;;9.65;;
34242;SDS011;20504;43.214;27.920;2022-11-23T11:51:39;27.73;;;9.75;;
34242;SDS011;20504;43.214;27.920;2022-11-23T11:54:23;31.67;;;9.18;;
34242;SDS011;20504;43.214;27.920;2022-11-23T11:57:19;29.75;;;11.75;;
34242;SDS011;20504;43.214;27.920;2022-11-23T11:59:50;25.38;;;9.23;;
34242;SDS011;20504;43.214;27.920;2022-11-23T12:05:49;19.00;;;7.38;;
34242;SDS011;20504;43.214;27.920;2022-11-23T12:08:23;11.48;;;4.70;;
34242;SDS011;20504;43.214;27.920;2022-11-23T12:11:04;8.73;;;4.43;;
34242;SDS011;20504;43.214;27.920;2022-11-23T12:13:41;13.40;;;6.45;;
34242;SDS011;20504;43.214;27.920;2022-11-23T12:16:25;13.10;;;5.13;;
34242;SDS011;20504;43.214;27.920;2022-11-23T12:19:32;12.88;;;4.30;;
34242;SDS011;20504;43.214;27.920;2022-11-23T12:24:59;10.30;;;3.25;;
34242;SDS011;20504;43.214;27.920;2022-11-23T12:42:47;7.65;;;2.78;;
34242;SDS011;20504;43.214;27.920;2022-11-23T12:45:43;5.07;;;3.13;;
34242;SDS011;20504;43.214;27.920;2022-11-23T12:48:20;7.57;;;3.30;;
34242;SDS011;20504;43.214;27.920;2022-11-23T12:51:25;12.95;;;4.05;;
34242;SDS011;20504;43.214;27.920;2022-11-23T12:59:59;14.65;;;4.05;;
34242;SDS011;20504;43.214;27.920;2022-11-23T13:08:37;7.95;;;3.28;;
34242;SDS011;20504;43.214;27.920;2022-11-23T13:10:52;4.55;;;2.85;;
34242;SDS011;20504;43.214;27.920;2022-11-23T13:21:57;7.28;;;3.13;;
34242;SDS011;20504;43.214;27.920;2022-11-23T13:40:28;3.25;;;2.33;;
34242;SDS011;20504;43.214;27.920;2022-11-23T13:43:00;8.40;;;4.35;;
34242;SDS011;20504;43.214;27.920;2022-11-23T13:45:39;14.82;;;7.00;;
34242;SDS011;20504;43.214;27.920;2022-11-23T13:48:12;6.25;;;3.50;;
34242;SDS011;20504;43.214;27.920;2022-11-23T13:50:57;4.30;;;2.78;;
34242;SDS011;20504;43.214;27.920;2022-11-23T13:53:45;3.35;;;1.55;;
34242;SDS011;20504;43.214;27.920;2022-11-23T13:56:38;3.00;;;1.95;;
34242;SDS011;20504;43.214;27.920;2022-11-23T13:59:28;5.80;;;3.17;;
34242;SDS011;20504;43.214;27.920;2022-11-23T14:04:39;8.38;;;3.03;;
34242;SDS011;20504;43.214;27.920;2022-11-23T14:07:23;14.70;;;5.55;;
34242;SDS011;20504;43.214;27.920;2022-11-23T14:09:56;12.02;;;4.50;;
34242;SDS011;20504;43.214;27.920;2022-11-23T14:12:41;7.47;;;3.80;;
34242;SDS011;20504;43.214;27.920;2022-11-23T14:15:35;5.85;;;2.40;;
34242;SDS011;20504;43.214;27.920;2022-11-23T14:27:26;5.43;;;2.80;;
34242;SDS011;20504;43.214;27.920;2022-11-23T14:30:21;11.82;;;4.53;;
34242;SDS011;20504;43.214;27.920;2022-11-23T14:39:03;5.82;;;2.65;;
34242;SDS011;20504;43.214;27.920;2022-11-23T14:42:09;10.57;;;3.45;;
34242;SDS011;20504;43.214;27.920;2022-11-23T14:44:52;6.18;;;2.75;;
34242;SDS011;20504;43.214;27.920;2022-11-23T14:47:24;5.03;;;2.85;;
34242;SDS011;20504;43.214;27.920;2022-11-23T14:50:02;6.68;;;3.13;;
34242;SDS011;20504;43.214;27.920;2022-11-23T14:52:32;7.57;;;2.97;;
34242;SDS011;20504;43.214;27.920;2022-11-23T14:55:04;6.00;;;3.00;;
34242;SDS011;20504;43.214;27.920;2022-11-23T14:57:38;6.25;;;3.15;;
34242;SDS011;20504;43.214;27.920;2022-11-23T15:03:04;10.02;;;4.70;;
34242;SDS011;20504;43.214;27.920;2022-11-23T15:05:43;11.05;;;4.05;;
34242;SDS011;20504;43.214;27.920;2022-11-23T15:27:08;12.25;;;5.30;;
34242;SDS011;20504;43.214;27.920;2022-11-23T15:51:35;4.10;;;2.80;;
34242;SDS011;20504;43.214;27.920;2022-11-23T15:55:00;8.00;;;2.33;;
34242;SDS011;20504;43.214;27.920;2022-11-23T16:00:20;7.45;;;3.08;;
34242;SDS011;20504;43.214;27.920;2022-11-23T16:30:25;10.20;;;3.72;;
34242;SDS011;20504;43.214;27.920;2022-11-23T16:36:01;12.13;;;3.95;;
34242;SDS011;20504;43.214;27.920;2022-11-23T16:38:42;7.88;;;3.40;;
34242;SDS011;20504;43.214;27.920;2022-11-23T19:16:57;13.50;;;5.95;;
34242;SDS011;20504;43.214;27.920;2022-11-23T19:26:40;13.18;;;6.60;;
34242;SDS011;20504;43.214;27.920;2022-11-23T19:29:40;15.75;;;6.60;;
34242;SDS011;20504;43.214;27.920;2022-11-23T19:32:07;13.07;;;6.47;;
34242;SDS011;20504;43.214;27.920;2022-11-23T19:34:32;15.02;;;7.38;;
34242;SDS011;20504;43.214;27.920;2022-11-23T19:36:59;12.02;;;6.07;;
34242;SDS011;20504;43.214;27.920;2022-11-23T19:39:32;14.13;;;6.78;;
34242;SDS011;20504;43.214;27.920;2022-11-23T19:42:18;14.00;;;5.82;;
34242;SDS011;20504;43.214;27.920;2022-11-23T19:44:54;15.18;;;6.85;;
34242;SDS011;20504;43.214;27.920;2022-11-23T20:19:58;16.95;;;8.70;;
34242;SDS011;20504;43.214;27.920;2022-11-23T20:22:50;16.23;;;9.43;;
34242;SDS011;20504;43.214;27.920;2022-11-23T20:45:56;21.13;;;11.35;;
34242;SDS011;20504;43.214;27.920;2022-11-23T20:48:30;19.92;;;11.25;;
34242;SDS011;20504;43.214;27.920;2022-11-23T21:00:56;18.95;;;9.57;;
